Flight Track Log - Related Links

Times and Time Zones

All times are in EDT time to prevent confusion due to time zone crossing. See the N700MP flight status page for this flight to view local times or setup timezone preferences in your user account.

Time Position Orientation Groundspeed Altitude Reporting Facility
EDT Latitude Longitude Course Direction KTS MPH feet Rate Location/Type
Fri 01:37:12 PM 42.3667 -70.9833 90° East 152 175 600  Level KA90
Fri 01:37:54 PM 42.3667 -70.9333 90° East 175 201 2,900 2,853 Climbing KA90
Fri 01:39:35 PM 42.4225 -70.8369 52° Northeast 260 299 7,400 2,870 Climbing Boston Center
Fri 01:40:35 PM 42.5097 -70.8206 North 247 284 10,600 2,622 Climbing Boston Center
Fri 01:41:34 PM 42.5711 -70.8950 318° Northwest 230 265 12,600 1,900 Climbing Boston Center
Fri 01:42:35 PM 42.6353 -71.0150 306° West 285 328 14,400 1,736 Climbing Boston Center
Fri 01:43:35 PM 42.6928 -71.1181 307° West 344 396 16,100 1,850 Climbing Boston Center
Fri 01:44:35 PM 42.7653 -71.2494 307° West 388 447 18,100 1,800 Climbing Boston Center
Fri 01:45:35 PM 42.8433 -71.3442 318° Northwest 398 458 19,700 1,900 Climbing Boston Center
Fri 01:46:35 PM 42.8758 -71.4939 287° West 362 417 21,900 1,850 Climbing Boston Center
Fri 01:47:35 PM 42.8872 -71.6183 277° West 368 423 23,400 1,636 Climbing Boston Center
Fri 01:48:47 PM 42.8986 -71.7825 275° West 373 429 25,500 1,636 Climbing Boston Center
Fri 01:49:47 PM 42.9078 -71.9156 275° West 367 422 27,000 1,400 Climbing Boston Center
Fri 01:50:47 PM 42.9167 -72.0433 275° West 362 417 28,300 1,300 Climbing Boston Center
Fri 01:51:47 PM 42.9253 -72.1933 275° West 362 417 29,600 1,109 Climbing Boston Center
Fri 01:52:46 PM 42.9381 -72.3125 278° West 362 417 30,500 1,008 Climbing Boston Center
Fri 01:53:46 PM 42.9464 -72.4486 275° West 362 417 31,600 1,091 Climbing Boston Center
Fri 01:54:47 PM 42.9589 -72.5819 277° West 362 417 32,700 942 Climbing Boston Center
Fri 01:55:47 PM 42.9544 -72.7153 267° West 362 417 33,500 800 Climbing Boston Center
Fri 01:56:47 PM 42.9603 -72.8572 273° West 367 422 34,300 850 Climbing Boston Center
Fri 01:57:47 PM 42.9742 -73.0133 277° West 367 422 35,200 850 Climbing Boston Center
Fri 01:58:47 PM 42.9797 -73.1553 273° West 373 429 36,000 750 Climbing Boston Center
Fri 01:59:47 PM 42.9850 -73.2944 273° West 373 429 36,700 750 Climbing Boston Center
Fri 02:00:47 PM 42.9839 -73.4164 269° West 373 429 37,500 650 Climbing Boston Center
Fri 02:01:47 PM 42.9911 -73.5556 274° West 367 422 38,000 250 Climbing Boston Center
Fri 02:02:47 PM 42.9958 -73.7006 273° West 367 422 38,000  Level Boston Center
Fri 02:03:47 PM 43.0022 -73.8483 273° West 379 436 38,000  Level Boston Center
Fri 02:04:47 PM 43.0086 -74.0017 273° West 394 453 38,000  Level Boston Center
Fri 02:05:47 PM 43.0128 -74.1553 272° West 400 460 38,000  Level Boston Center
Fri 02:06:47 PM 43.0167 -74.3031 272° West 406 467 38,000  Level Boston Center
Fri 02:07:47 PM 43.0225 -74.4564 273° West 406 467 38,000  Level Boston Center
Fri 02:08:47 PM 43.0300 -74.6103 274° West 406 467 38,000  Level Boston Center
Fri 02:09:47 PM 43.0311 -74.7636 271° West 406 467 38,000  Level Boston Center
Fri 02:10:47 PM 43.0361 -74.9172 273° West 406 467 38,000  Level Boston Center
Fri 02:11:47 PM 43.0389 -75.0736 271° West 406 467 38,000  Level Boston Center
Fri 02:12:47 PM 43.0433 -75.2442 272° West 406 467 38,000  Level Boston Center
Fri 02:13:47 PM 43.0475 -75.4008 272° West 406 467 38,000  Level Boston Center
Fri 02:14:47 PM 43.0497 -75.5572 271° West 406 467 38,000  Level Boston Center
Fri 02:15:47 PM 43.0558 -75.7139 273° West 411 473 38,000  Level Boston Center
Fri 02:17:46 PM 43.0500 -75.9833 268° West 410 472 38,000  Level Toronto Center
Fri 02:18:46 PM 43.0667 -76.1500 278° West 410 472 38,000  Level Toronto Center
Fri 02:19:46 PM 43.0500 -76.3000 261° West 420 483 38,000  Level Toronto Center
Fri 02:20:44 PM 43.0692 -76.4847 278° West 406 467 38,000  Level Cleveland Center
Fri 02:21:44 PM 43.0725 -76.6408 272° West 406 467 38,000  Level Cleveland Center
Fri 02:22:44 PM 43.0728 -76.7772 270° West 406 467 38,000  Level Cleveland Center
Fri 02:23:44 PM 43.0739 -76.9336 271° West 406 467 38,000  Level Cleveland Center
Fri 02:24:44 PM 43.0767 -77.0928 271° West 411 473 38,000  Level Cleveland Center
Fri 02:25:44 PM 43.0772 -77.2547 270° West 422 486 38,000  Level Cleveland Center
Fri 02:26:44 PM 43.0794 -77.4139 271° West 422 486 38,000  Level Cleveland Center
Fri 02:27:44 PM 43.0797 -77.5731 270° West 422 486 38,000  Level Cleveland Center
Fri 02:28:44 PM 43.0817 -77.7292 271° West 422 486 38,000  Level Cleveland Center
Fri 02:29:44 PM 43.0817 -77.9056 270° West 422 486 38,000  Level Cleveland Center
Fri 02:30:44 PM 43.0808 -78.0619 270° West 422 486 38,000  Level Cleveland Center
Fri 02:31:44 PM 43.0822 -78.2211 271° West 422 486 38,000 -50 Level Cleveland Center
Fri 02:32:44 PM 43.0811 -78.3831 270° West 422 486 37,900 -450 Descending Cleveland Center
Fri 02:33:44 PM 43.0800 -78.5394 269° West 422 486 37,100 -800 Descending Cleveland Center
Fri 02:34:44 PM 43.0783 -78.6989 269° West 422 486 36,300 -750 Descending Cleveland Center
Fri 02:35:44 PM 43.0786 -78.8522 270° West 417 480 35,600 -800 Descending Cleveland Center
Fri 02:36:44 PM 43.0747 -79.0058 268° West 417 480 34,700 -836 Descending Cleveland Center
Fri 02:37:46 PM 43.0667 -79.1500 266° West 400 460 33,900 -885 Descending Toronto Center
Fri 02:38:46 PM 43.0667 -79.2833 270° West 400 460 32,900 -1,050 Descending Toronto Center
Fri 02:39:46 PM 43.0667 -79.4500 270° West 410 472 31,800 -1,100 Descending Toronto Center
Fri 02:40:46 PM 43.0667 -79.6167 270° West 410 472 30,700 -900 Descending Toronto Center
Fri 02:41:46 PM 43.0500 -79.7667 261° West 410 472 30,000 -350 Descending Toronto Center
Fri 02:42:46 PM 43.0500 -79.9000 270° West 400 460 30,000  Level Toronto Center
Fri 02:43:46 PM 43.0333 -80.0667 262° West 400 460 30,000  Level Toronto Center
Fri 02:44:46 PM 43.0167 -80.2000 260° West 400 460 30,000  Level Toronto Center
Fri 02:45:46 PM 43.0167 -80.3667 270° West 400 460 30,000  Level Toronto Center
Fri 02:46:46 PM 43.0000 -80.5000 260° West 400 460 30,000 -950 Level Toronto Center
Fri 02:47:46 PM 42.9833 -80.6667 262° West 400 460 28,100 -1,750 Descending Toronto Center
Fri 02:48:46 PM 42.9667 -80.8000 260° West 390 449 26,500 -1,800 Descending Toronto Center
Fri 02:49:46 PM 42.9333 -80.9500 253° West 380 437 24,500 -1,950 Descending Toronto Center
Fri 02:50:46 PM 42.9167 -81.0833 260° West 380 437 22,600 -1,950 Descending Toronto Center
Fri 02:51:46 PM 42.9000 -81.2333 261° West 380 437 20,600 -2,050 Descending Toronto Center
Fri 02:52:46 PM 42.8833 -81.3833 261° West 390 449 18,500 -2,050 Descending Toronto Center
Fri 02:53:46 PM 42.8667 -81.5167 260° West 390 449 16,500 -1,976 Descending Toronto Center
Fri 02:54:08 PM 42.8767 -81.5975 280° West 392 451 15,800 -1,902 Descending Cleveland Center
Fri 02:55:08 PM 42.8586 -81.7417 260° West 392 451 13,900 -1,700 Descending Cleveland Center
Fri 02:56:08 PM 42.8428 -81.8658 260° West 392 451 12,400 -1,450 Descending Cleveland Center
Fri 02:57:08 PM 42.8244 -82.0069 260° West 392 451 11,000 -532 Descending Cleveland Center
Fri 02:58:46 PM 42.7500 -82.2167 244° Southwest 390 449 11,000  Level Toronto Center
Fri 02:59:08 PM 42.7519 -82.2797 272° West 392 451 11,000  Level Cleveland Center
Fri 03:00:08 PM 42.7144 -82.4200 250° West 392 451 11,000 -550 Level Cleveland Center
Fri 03:01:08 PM 42.6831 -82.5461 251° West 380 437 9,900 -1,348 Descending Cleveland Center
Fri 03:01:37 PM 42.6511 -82.5903 225° Southwest 285 328 9,000 -1,500 Descending Cleveland Center
Fri 03:02:08 PM 42.6217 -82.6092 205° Southwest 313 360 8,400 -1,500 Descending Cleveland Center
Fri 03:02:45 PM 42.5892 -82.6700 234° Southwest 269 310 7,300 -1,500 Descending Cleveland Center
Fri 03:03:08 PM 42.5806 -82.6925 243° Southwest 290 334 6,900 -1,545 Descending Cleveland Center
Fri 03:03:51 PM 42.5378 -82.7472 223° Southwest 273 314 5,600 -1,600 Descending Cleveland Center
Fri 03:04:08 PM 42.5231 -82.7525 195° South 276 318 5,300 -492 Descending Cleveland Center
Fri 03:04:52 PM 42.4664 -82.7814 201° Southwest 263 303 5,100 -200 Descending Cleveland Center
Fri 03:05:08 PM 42.4558 -82.7894 209° Southwest 260 299 5,100 -109 Level Cleveland Center
Fri 03:05:47 PM 42.4156 -82.8247 213° Southwest 249 287 5,000  Descending Cleveland Center
Fri 03:06:48 PM 42.3539 -82.8731 210° Southwest 256 295 5,100  Climbing Cleveland Center
Fri 03:07:49 PM 42.2883 -82.9242 210° Southwest 254 292 5,000 -49 Descending Cleveland Center
Fri 03:08:50 PM 42.2269 -82.9722 210° Southwest 255 293 5,000  Level Cleveland Center
Fri 03:09:51 PM 42.1917 -83.0578 241° Southwest 253 291 5,000  Level Cleveland Center
Fri 03:10:52 PM 42.1586 -83.1378 241° Southwest 251 289 5,000  Level Cleveland Center
Fri 03:11:53 PM 42.1650 -83.2278 276° West 243 280 5,000  Level Cleveland Center
Fri 03:12:54 PM 42.1900 -83.3211 290° West 247 284 5,000  Level Cleveland Center
Fri 03:13:48 PM 42.2108 -83.4033 289° West 249 287 5,000  Level Cleveland Center
Fri 03:14:49 PM 42.2317 -83.4914 288° West 249 287 5,000 -443 Level Cleveland Center
Fri 03:15:50 PM 42.2522 -83.5792 288° West 243 280 4,100 -984 Descending Cleveland Center
Fri 03:16:51 PM 42.2439 -83.6603 262° West 221 254 3,000 -492 Descending Cleveland Center
Fri 03:17:52 PM 42.2211 -83.7347 248° West 225 259 3,100 98 Climbing Cleveland Center

Login

Don't have an account? Register now (free) for customized features, flight alerts, and more!